createdAt,value
2023-03-31T00:00:11.888Z,80.56
2023-03-31T00:05:04.941Z,80.59
2023-03-31T00:10:10.323Z,80.96
2023-03-31T00:15:09.445Z,81.42
2023-03-31T00:20:06.099Z,81.36
2023-03-31T00:24:58.949Z,81.39
2023-03-31T00:29:53.186Z,81.31
2023-03-31T00:34:47.087Z,81.23
2023-03-31T00:39:40.398Z,81.45
2023-03-31T00:44:34.521Z,81.44
2023-03-31T00:49:36.484Z,81.50
2023-03-31T00:54:31.113Z,81.59
2023-03-31T00:59:28.748Z,81.62
2023-03-31T01:04:22.886Z,81.65
2023-03-31T01:09:17.080Z,81.63
2023-03-31T01:14:11.130Z,81.69
2023-03-31T01:19:03.948Z,81.31
2023-03-31T01:24:38.069Z,81.64
2023-03-31T01:30:16.287Z,81.84
2023-03-31T01:35:28.521Z,81.56
2023-03-31T01:40:39.496Z,81.48
2023-03-31T01:45:51.139Z,81.62
2023-03-31T01:50:49.903Z,81.37
2023-03-31T01:55:52.963Z,81.51
2023-03-31T02:01:01.999Z,81.32
2023-03-31T02:05:58.404Z,81.39
2023-03-31T02:10:53.831Z,81.18
2023-03-31T02:15:58.140Z,81.20
2023-03-31T02:20:54.866Z,81.19
2023-03-31T02:25:54.822Z,81.14
2023-03-31T02:30:56.271Z,81.14
2023-03-31T02:35:49.262Z,81.16
2023-03-31T02:40:42.077Z,81.04
2023-03-31T02:45:45.634Z,80.88
2023-03-31T02:51:07.686Z,81.23
2023-03-31T02:56:39.280Z,80.84
2023-03-31T03:01:47.373Z,80.87
2023-03-31T03:06:46.131Z,80.84
2023-03-31T03:11:53.505Z,80.80
2023-03-31T03:16:51.817Z,80.73
2023-03-31T03:21:46.132Z,80.87
2023-03-31T03:26:38.914Z,80.79
2023-03-31T03:31:33.793Z,80.86
2023-03-31T03:36:27.047Z,80.84
2023-03-31T03:41:19.939Z,80.75
2023-03-31T03:46:13.533Z,80.73
2023-03-31T03:51:07.458Z,80.66
2023-03-31T03:56:01.721Z,80.62
2023-03-31T04:00:54.583Z,80.77
2023-03-31T04:05:49.999Z,80.64
2023-03-31T04:10:50.738Z,80.54
2023-03-31T04:15:43.976Z,80.44
2023-03-31T04:20:38.030Z,80.37
2023-03-31T04:25:30.881Z,80.49
2023-03-31T04:30:30.940Z,80.38
2023-03-31T04:35:25.550Z,80.53
2023-03-31T04:40:18.648Z,80.25
2023-03-31T04:45:14.580Z,80.52
2023-03-31T04:50:11.509Z,80.24
2023-03-31T04:55:07.605Z,80.26
2023-03-31T05:00:00.459Z,80.19
2023-03-31T05:04:53.644Z,80.22
2023-03-31T05:09:47.105Z,80.05
2023-03-31T05:14:40.890Z,79.85
2023-03-31T05:19:33.795Z,79.82
2023-03-31T05:24:28.381Z,79.96
2023-03-31T05:29:22.081Z,80.02
2023-03-31T05:34:16.430Z,79.68
2023-03-31T05:39:09.618Z,79.62
2023-03-31T05:44:02.535Z,79.48
2023-03-31T05:48:56.542Z,79.20
2023-03-31T05:53:50.389Z,79.00
2023-03-31T05:58:43.409Z,78.82
2023-03-31T06:03:38.028Z,78.97
2023-03-31T06:08:31.112Z,78.65
2023-03-31T06:13:24.734Z,78.51
2023-03-31T06:18:17.626Z,78.24
2023-03-31T06:23:12.813Z,78.11
2023-03-31T06:28:06.414Z,78.07
2023-03-31T06:32:59.434Z,77.67
2023-03-31T06:37:52.580Z,77.52
2023-03-31T06:42:45.704Z,77.58
2023-03-31T06:47:38.952Z,77.25
2023-03-31T06:52:33.390Z,77.08
2023-03-31T06:57:26.186Z,76.43
2023-03-31T07:02:19.007Z,75.39
2023-03-31T07:07:11.872Z,74.95
2023-03-31T07:12:05.916Z,74.94
2023-03-31T07:16:59.344Z,74.31
2023-03-31T07:21:53.307Z,73.80
2023-03-31T07:26:46.119Z,73.12
2023-03-31T07:31:39.001Z,72.94
2023-03-31T07:36:32.620Z,72.31
2023-03-31T07:41:26.514Z,71.84
2023-03-31T07:46:28.303Z,69.16
2023-03-31T07:51:23.628Z,64.09
2023-03-31T07:56:18.152Z,62.06
2023-03-31T08:01:12.418Z,61.99
2023-03-31T08:06:05.858Z,63.80
2023-03-31T08:10:59.194Z,64.24
2023-03-31T08:15:53.417Z,63.93
2023-03-31T08:20:50.013Z,63.67
2023-03-31T08:25:43.209Z,63.81
2023-03-31T08:30:38.168Z,63.94
2023-03-31T08:35:30.998Z,63.96
2023-03-31T08:40:27.046Z,63.94
2023-03-31T08:45:26.726Z,64.61
2023-03-31T08:50:28.612Z,64.90
2023-03-31T08:55:29.341Z,65.41
2023-03-31T09:00:22.306Z,66.07
2023-03-31T09:05:15.131Z,66.00
2023-03-31T09:10:14.039Z,65.60
2023-03-31T09:15:25.811Z,65.06
2023-03-31T09:20:18.654Z,64.11
2023-03-31T09:25:21.162Z,63.92
2023-03-31T09:30:16.918Z,63.64
2023-03-31T09:35:22.860Z,62.25
2023-03-31T09:40:28.376Z,61.76
2023-03-31T09:45:22.071Z,61.16
2023-03-31T09:50:16.775Z,60.76
2023-03-31T09:55:38.407Z,60.15
2023-03-31T10:00:32.358Z,60.69
2023-03-31T10:05:31.043Z,61.06
2023-03-31T10:10:32.378Z,60.64
2023-03-31T10:15:29.528Z,59.91
2023-03-31T10:20:33.635Z,58.57
2023-03-31T10:25:29.793Z,58.50
2023-03-31T10:30:25.900Z,57.90
2023-03-31T10:35:34.715Z,57.55
2023-03-31T10:40:30.632Z,56.64
2023-03-31T10:45:37.326Z,56.00
2023-03-31T10:50:34.423Z,55.69
2023-03-31T10:55:37.537Z,56.33
2023-03-31T11:00:38.045Z,57.37
2023-03-31T11:05:44.437Z,56.93
2023-03-31T11:10:59.302Z,56.12
2023-03-31T11:16:03.932Z,56.66
2023-03-31T11:21:27.034Z,56.31
2023-03-31T11:26:46.576Z,55.53
2023-03-31T11:31:42.338Z,54.97
2023-03-31T11:36:52.482Z,54.44
2023-03-31T11:41:51.885Z,54.36
2023-03-31T11:46:49.527Z,53.66
2023-03-31T11:51:54.584Z,53.70
2023-03-31T11:56:47.835Z,53.30
2023-03-31T12:01:54.130Z,52.64
2023-03-31T12:06:49.453Z,52.54
2023-03-31T12:12:06.568Z,52.69
2023-03-31T12:17:09.411Z,52.30
2023-03-31T12:22:12.635Z,52.29
2023-03-31T12:27:41.811Z,52.47
2023-03-31T12:32:39.640Z,52.96
2023-03-31T12:37:54.468Z,53.37
2023-03-31T12:42:47.343Z,52.81
2023-03-31T12:47:46.393Z,52.65
2023-03-31T12:53:11.763Z,52.78
2023-03-31T12:58:27.000Z,52.01
2023-03-31T13:03:46.787Z,51.44
2023-03-31T13:08:59.446Z,52.06
2023-03-31T13:14:04.923Z,52.86
2023-03-31T13:18:58.616Z,53.08
2023-03-31T13:23:52.511Z,53.60
2023-03-31T13:28:45.327Z,53.68
2023-03-31T13:33:57.155Z,53.31
2023-03-31T13:39:27.454Z,53.55
2023-03-31T13:44:42.302Z,53.72
2023-03-31T13:50:00.035Z,54.18
2023-03-31T13:55:02.139Z,54.48
2023-03-31T14:00:14.534Z,54.74
2023-03-31T14:05:35.376Z,55.20
2023-03-31T14:10:38.248Z,54.60
2023-03-31T14:15:32.401Z,54.05
2023-03-31T14:20:53.505Z,54.03
2023-03-31T14:26:17.071Z,54.24
2023-03-31T14:31:35.614Z,54.52
2023-03-31T14:37:01.846Z,53.71
2023-03-31T14:41:57.018Z,53.60
2023-03-31T14:46:49.854Z,53.56
2023-03-31T14:51:45.854Z,54.02
2023-03-31T14:56:41.618Z,54.39
2023-03-31T15:01:38.072Z,54.81
2023-03-31T15:06:33.223Z,55.64
2023-03-31T15:11:28.983Z,57.95
2023-03-31T15:16:42.226Z,60.11
2023-03-31T15:21:39.178Z,61.75
2023-03-31T15:26:41.727Z,63.12
2023-03-31T15:31:34.968Z,64.43
2023-03-31T15:36:31.784Z,65.29
2023-03-31T15:46:52.038Z,66.46
2023-03-31T15:51:47.956Z,65.40
2023-03-31T15:56:46.296Z,65.33
2023-03-31T16:01:45.589Z,65.85
2023-03-31T16:06:59.801Z,66.47
2023-03-31T16:11:56.801Z,67.06
2023-03-31T16:16:55.822Z,67.76
2023-03-31T16:21:52.833Z,68.44
2023-03-31T16:26:46.115Z,68.88
2023-03-31T16:31:41.597Z,69.24
2023-03-31T16:36:34.758Z,69.38
2023-03-31T16:41:30.129Z,69.84
2023-03-31T16:46:24.825Z,70.27
2023-03-31T16:51:17.921Z,70.49
2023-03-31T16:56:12.879Z,70.84
2023-03-31T17:01:07.310Z,71.18
2023-03-31T17:06:07.098Z,71.56
2023-03-31T17:11:07.052Z,71.65
2023-03-31T17:16:13.464Z,71.94
2023-03-31T17:21:13.805Z,71.94
2023-03-31T17:26:09.772Z,72.16
2023-03-31T17:31:03.456Z,72.34
2023-03-31T17:35:59.560Z,72.54
2023-03-31T17:40:52.451Z,72.73
2023-03-31T17:45:45.250Z,72.89
2023-03-31T17:50:38.449Z,73.09
2023-03-31T17:55:31.608Z,73.33
2023-03-31T18:00:24.618Z,73.51
2023-03-31T18:05:18.416Z,73.85
2023-03-31T18:10:12.169Z,74.06
2023-03-31T18:15:07.142Z,74.33
2023-03-31T18:20:00.275Z,74.53
2023-03-31T18:24:53.147Z,74.71
2023-03-31T18:29:46.222Z,74.79
2023-03-31T18:34:39.214Z,75.01
2023-03-31T18:39:32.183Z,74.87
2023-03-31T18:44:25.094Z,75.19
2023-03-31T18:49:20.117Z,75.31
2023-03-31T18:54:13.205Z,75.38
2023-03-31T18:59:06.026Z,75.45
2023-03-31T19:03:59.186Z,75.62
2023-03-31T19:08:52.097Z,75.78
2023-03-31T19:13:45.457Z,75.92
2023-03-31T19:18:38.648Z,75.93
2023-03-31T19:23:32.850Z,76.18
2023-03-31T19:28:26.818Z,76.15
2023-03-31T19:33:21.793Z,76.34
2023-03-31T19:38:16.118Z,76.42
2023-03-31T19:43:20.925Z,76.81
2023-03-31T19:48:14.054Z,76.89
2023-03-31T19:53:07.039Z,76.93
2023-03-31T19:57:59.830Z,76.99
2023-03-31T20:02:52.812Z,77.26
2023-03-31T20:07:46.174Z,77.23
2023-03-31T20:12:39.454Z,77.38
2023-03-31T20:17:32.236Z,77.35
2023-03-31T20:22:27.170Z,77.57
2023-03-31T20:27:20.210Z,77.56
2023-03-31T20:32:13.051Z,77.89
2023-03-31T20:37:05.863Z,78.06
2023-03-31T20:42:06.399Z,77.89
2023-03-31T20:47:02.454Z,77.98
2023-03-31T20:51:56.679Z,78.15
2023-03-31T20:56:50.580Z,78.38
2023-03-31T21:01:45.329Z,78.54
2023-03-31T21:06:44.301Z,78.47
2023-03-31T21:11:37.262Z,78.66
2023-03-31T21:16:30.160Z,78.80
2023-03-31T21:21:25.095Z,79.12
2023-03-31T21:26:18.139Z,79.44
2023-03-31T21:31:22.719Z,79.72
2023-03-31T21:36:18.640Z,79.97
2023-03-31T21:41:23.436Z,79.93
2023-03-31T21:46:19.275Z,80.28
2023-03-31T21:51:13.535Z,80.32
2023-03-31T21:56:06.940Z,80.43
2023-03-31T22:01:05.360Z,80.51
2023-03-31T22:05:59.600Z,80.66
2023-03-31T22:10:53.267Z,80.76
2023-03-31T22:15:46.852Z,80.86
2023-03-31T22:20:41.198Z,80.95
2023-03-31T22:25:34.778Z,81.08
2023-03-31T22:30:29.699Z,81.11
2023-03-31T22:35:23.042Z,81.13
2023-03-31T22:40:15.906Z,81.30
2023-03-31T22:45:09.411Z,81.36
2023-03-31T22:50:02.202Z,81.41
2023-03-31T22:54:55.088Z,81.36
2023-03-31T22:59:48.094Z,81.45
2023-03-31T23:04:40.889Z,81.46
2023-03-31T23:09:35.079Z,81.55
2023-03-31T23:14:28.295Z,81.53
2023-03-31T23:19:21.066Z,81.72
2023-03-31T23:24:13.911Z,81.84
2023-03-31T23:29:06.752Z,81.94
2023-03-31T23:34:00.603Z,81.84
2023-03-31T23:38:55.663Z,82.01
2023-03-31T23:43:48.483Z,82.00
2023-03-31T23:48:41.970Z,82.02
2023-03-31T23:53:36.193Z,81.95
2023-03-31T23:58:33.082Z,82.08
